Time;durP1;ratioP1;P1;durP2;ratioP2;P2;SDS_P1;SDS_P2;PMS_P1;PMS_P2;Temp;Humidity;BMP_temperature;BMP_pressure;BME280_temperature;BME280_humidity;BME280_pressure;Samples;Min_cycle;Max_cycle;Signal;HPM_P1;HPM_P2
2021/03/09 00:01:40;;;;;;;;;;;;;;;;;;5073671;28;924;-72
2021/03/09 00:04:05;;;;;;;;;;;;;;;;;;5073497;28;829;-72
2021/03/09 00:06:30;;;;;;;;;;;;;;;;;;5055520;28;1337;-72
2021/03/09 00:08:56;;;;;;;;;;;;;;;;;;5073562;28;810;-72
2021/03/09 00:11:21;;;;;;;;;;;;;;;;;;5073534;28;1955;-72
2021/03/09 00:13:46;;;;;;;;;;;;;;;;;;5073438;28;952;-73
2021/03/09 00:16:11;;;;;;;;;;;;;;;;;;5055312;28;1274;-72
2021/03/09 00:18:36;;;;;;;;;;;;;;;;;;5073433;28;893;-72
2021/03/09 00:21:02;;;;;;;;;;;;;;;;;;5055747;28;1318;-73
2021/03/09 00:23:27;;;;;;;;;;;;;;;;;;5076147;28;836;-71
2021/03/09 00:25:53;;;;;;;;;;;;;;;;;;5077654;28;1400;-72
2021/03/09 00:28:19;;;;;;;;;;;;;;;;;;5059595;28;936;-71
2021/03/09 00:30:44;;;;;;;;;;;;;;;;;;5077584;28;877;-73
2021/03/09 00:33:10;;;;;;;;;;;;;;;;;;5077078;28;1958;-72
2021/03/09 00:35:35;;;;;;;;;;;;;;;;;;5076951;28;1349;-73
2021/03/09 00:38:00;;;;;;;;;;;;;;;;;;5077371;28;944;-72
2021/03/09 00:40:26;;;;;;;;;;;;;;;;;;5059454;28;1418;-71
2021/03/09 00:42:51;;;;;;;;;;;;;;;;;;5059152;28;1488;-73
2021/03/09 00:45:16;;;;;;;;;;;;;;;;;;5059638;28;1392;-74
2021/03/09 00:47:41;;;;;;;;;;;;;;;;;;5059380;28;1192;-73
2021/03/09 00:50:07;;;;;;;;;;;;;;;;;;5077613;28;992;-73
2021/03/09 00:52:32;;;;;;;;;;;;;;;;;;5059393;28;1875;-74
2021/03/09 00:54:57;;;;;;;;;;;;;;;;;;5077544;28;867;-74
2021/03/09 00:57:22;;;;;;;;;;;;;;;;;;5077652;28;1428;-74
2021/03/09 00:59:48;;;;;;;;;;;;;;;;;;5059633;28;806;-74
2021/03/09 01:02:13;;;;;;;;;;;;;;;;;;5059223;28;885;-74
2021/03/09 01:04:38;;;;;;;;;;;;;;;;;;5059532;28;869;-74
2021/03/09 01:07:03;;;;;;;;;;;;;;;;;;5077306;28;1405;-74
2021/03/09 01:09:29;;;;;;;;;;;;;;;;;;5077249;28;1007;-74
2021/03/09 01:11:54;;;;;;;;;;;;;;;;;;5059509;28;1968;-74
2021/03/09 01:14:19;;;;;;;;;;;;;;;;;;5077009;28;1223;-75
2021/03/09 01:16:44;;;;;;;;;;;;;;;;;;5059171;28;1506;-75
2021/03/09 01:19:10;;;;;;;;;;;;;;;;;;5077021;28;966;-75
2021/03/09 01:21:35;;;;;;;;;;;;;;;;;;5059412;28;1007;-75
2021/03/09 01:24:00;;;;;;;;;;;;;;;;;;5058875;28;831;-74
2021/03/09 01:26:26;;;;;;;;;;;;;;;;;;5076943;28;1329;-75
2021/03/09 01:28:51;;;;;;;;;;;;;;;;;;5077093;28;829;-74
2021/03/09 01:31:16;;;;;;;;;;;;;;;;;;5077051;28;805;-75
2021/03/09 01:33:41;;;;;;;;;;;;;;;;;;5075466;28;1901;-74
2021/03/09 01:36:07;;;;;;;;;;;;;;;;;;5076653;28;1290;-74
2021/03/09 01:38:32;;;;;;;;;;;;;;;;;;5076781;28;868;-74
2021/03/09 01:40:57;;;;;;;;;;;;;;;;;;5076821;28;858;-74
2021/03/09 01:43:23;;;;;;;;;;;;;;;;;;5058874;28;876;-74
2021/03/09 01:45:48;;;;;;;;;;;;;;;;;;5058585;28;1353;-74
2021/03/09 01:48:13;;;;;;;;;;;;;;;;;;5059173;28;952;-74
2021/03/09 01:50:39;;;;;;;;;;;;;;;;;;5076396;28;952;-75
2021/03/09 01:53:05;;;;;;;;;;;;;;;;;;5076249;28;1893;-74
2021/03/09 01:55:31;;;;;;;;;;;;;;;;;;5076550;28;1364;-75
2021/03/09 01:57:56;;;;;;;;;;;;;;;;;;5076478;28;873;-74
2021/03/09 02:00:22;;;;;;;;;;;;;;;;;;5076298;28;845;-74
2021/03/09 02:02:47;;;;;;;;;;;;;;;;;;5076125;28;883;-74
2021/03/09 02:05:12;;;;;;;;;;;;;;;;;;5058306;28;1357;-75
2021/03/09 02:07:38;;;;;;;;;;;;;;;;;;5058377;28;1434;-74
2021/03/09 02:10:05;;;;;;;;;;;;;;;;;;5076119;28;913;-74
2021/03/09 02:12:42;;;;;;;;;;;;;;;;;;5057801;28;1895;-74
2021/03/09 02:15:15;;;;;;;;;;;;;;;;;;5076124;28;1054;-74
2021/03/09 02:17:41;;;;;;;;;;;;;;;;;;5058114;28;818;-75
2021/03/09 02:20:15;;;;;;;;;;;;;;;;;;5076121;28;1384;-74
2021/03/09 02:22:59;;;;;;;;;;;;;;;;;;5057855;28;1431;-75
2021/03/09 02:25:43;;;;;;;;;;;;;;;;;;5058154;28;1400;-74
2021/03/09 02:28:24;;;;;;;;;;;;;;;;;;5075708;28;896;-74
2021/03/09 02:30:50;;;;;;;;;;;;;;;;;;5075811;28;898;-74
2021/03/09 02:33:15;;;;;;;;;;;;;;;;;;5057641;28;1894;-74
2021/03/09 02:35:45;;;;;;;;;;;;;;;;;;5075608;28;1298;-74
2021/03/09 02:38:11;;;;;;;;;;;;;;;;;;5075777;28;1117;-75
2021/03/09 02:40:36;;;;;;;;;;;;;;;;;;5075318;28;1233;-75
2021/03/09 02:43:07;;;;;;;;;;;;;;;;;;5057381;28;849;-75
2021/03/09 02:45:32;;;;;;;;;;;;;;;;;;5075120;28;1270;-75
2021/03/09 02:47:59;;;;;;;;;;;;;;;;;;5075438;28;884;-75
2021/03/09 02:50:26;;;;;;;;;;;;;;;;;;5075494;28;901;-75
2021/03/09 02:52:54;;;;;;;;;;;;;;;;;;5074909;28;1902;-75
2021/03/09 02:55:20;;;;;;;;;;;;;;;;;;5075490;28;1389;-74
2021/03/09 02:57:47;;;;;;;;;;;;;;;;;;5075273;28;829;-74
2021/03/09 03:00:12;;;;;;;;;;;;;;;;;;5075444;28;817;-74
2021/03/09 03:02:38;;;;;;;;;;;;;;;;;;5057236;28;837;-75
2021/03/09 03:05:04;;;;;;;;;;;;;;;;;;5057388;28;1202;-74
2021/03/09 03:07:32;;;;;;;;;;;;;;;;;;5074728;28;1476;-75
2021/03/09 03:09:57;;;;;;;;;;;;;;;;;;5075121;28;821;-75
2021/03/09 03:12:23;;;;;;;;;;;;;;;;;;5057029;28;1957;-75
2021/03/09 03:14:49;;;;;;;;;;;;;;;;;;5074935;28;928;-74
2021/03/09 03:17:15;;;;;;;;;;;;;;;;;;5056987;28;1560;-75
2021/03/09 03:19:41;;;;;;;;;;;;;;;;;;5074981;28;957;-75
2021/03/09 03:22:06;;;;;;;;;;;;;;;;;;5057019;28;1133;-75
2021/03/09 03:24:33;;;;;;;;;;;;;;;;;;5056729;28;1135;-75
2021/03/09 03:26:58;;;;;;;;;;;;;;;;;;5057019;28;1471;-75
2021/03/09 03:29:23;;;;;;;;;;;;;;;;;;5074862;28;964;-75
2021/03/09 03:31:49;;;;;;;;;;;;;;;;;;5074626;28;1910;-75
2021/03/09 03:34:15;;;;;;;;;;;;;;;;;;5056917;28;1628;-75
2021/03/09 03:36:40;;;;;;;;;;;;;;;;;;5074555;28;1333;-75
2021/03/09 03:39:06;;;;;;;;;;;;;;;;;;5056671;28;920;-75
2021/03/09 03:41:31;;;;;;;;;;;;;;;;;;5074891;28;856;-75
2021/03/09 03:43:56;;;;;;;;;;;;;;;;;;5074298;28;888;-75
2021/03/09 03:46:22;;;;;;;;;;;;;;;;;;5056893;28;1484;-75
2021/03/09 03:48:47;;;;;;;;;;;;;;;;;;5074537;28;856;-75
2021/03/09 03:51:13;;;;;;;;;;;;;;;;;;5056285;28;869;-75
2021/03/09 03:53:48;;;;;;;;;;;;;;;;;;5074292;28;1965;-75
2021/03/09 03:56:14;;;;;;;;;;;;;;;;;;5056158;28;2404;-75
2021/03/09 03:58:51;;;;;;;;;;;;;;;;;;5055926;28;2348;-75
2021/03/09 04:01:19;;;;;;;;;;;;;;;;;;5056388;28;1761;-75
2021/03/09 04:03:46;;;;;;;;;;;;;;;;;;5055831;28;1757;-75
2021/03/09 04:06:12;;;;;;;;;;;;;;;;;;5074472;28;1333;-75
2021/03/09 04:08:38;;;;;;;;;;;;;;;;;;5074270;28;837;-75
2021/03/09 04:11:04;;;;;;;;;;;;;;;;;;5074686;28;820;-75
2021/03/09 04:13:31;;;;;;;;;;;;;;;;;;5073942;28;1965;-75
2021/03/09 04:15:56;;;;;;;;;;;;;;;;;;5074168;28;1377;-75
2021/03/09 04:18:23;;;;;;;;;;;;;;;;;;5056349;28;885;-75
2021/03/09 04:20:48;;;;;;;;;;;;;;;;;;5074336;28;917;-75
2021/03/09 04:23:15;;;;;;;;;;;;;;;;;;5074137;28;885;-75
2021/03/09 04:25:41;;;;;;;;;;;;;;;;;;5074075;28;1294;-75
2021/03/09 04:28:07;;;;;;;;;;;;;;;;;;5055981;28;948;-75
2021/03/09 04:30:33;;;;;;;;;;;;;;;;;;5074156;28;1007;-75
2021/03/09 04:33:02;;;;;;;;;;;;;;;;;;5073757;28;1901;-75
2021/03/09 04:35:27;;;;;;;;;;;;;;;;;;5073763;28;1277;-75
2021/03/09 04:37:53;;;;;;;;;;;;;;;;;;5074177;28;873;-75
2021/03/09 04:40:19;;;;;;;;;;;;;;;;;;5074030;28;853;-75
2021/03/09 04:42:45;;;;;;;;;;;;;;;;;;5073928;28;940;-75
2021/03/09 04:45:10;;;;;;;;;;;;;;;;;;5055957;28;1533;-75
2021/03/09 04:47:36;;;;;;;;;;;;;;;;;;5074206;28;1029;-75
2021/03/09 04:50:01;;;;;;;;;;;;;;;;;;5073659;28;822;-75
2021/03/09 04:52:27;;;;;;;;;;;;;;;;;;5055695;28;1985;-75
2021/03/09 04:54:53;;;;;;;;;;;;;;;;;;5073776;28;920;-75
2021/03/09 04:57:19;;;;;;;;;;;;;;;;;;5074127;28;1432;-76
2021/03/09 04:59:44;;;;;;;;;;;;;;;;;;5073862;28;888;-75
2021/03/09 05:02:10;;;;;;;;;;;;;;;;;;5073584;28;865;-75
2021/03/09 05:04:35;;;;;;;;;;;;;;;;;;5073562;28;883;-75
2021/03/09 05:07:00;;;;;;;;;;;;;;;;;;5073744;28;1408;-75
2021/03/09 05:09:25;;;;;;;;;;;;;;;;;;5076150;28;1046;-75
2021/03/09 05:11:51;;;;;;;;;;;;;;;;;;5077306;28;1902;-75
2021/03/09 05:14:16;;;;;;;;;;;;;;;;;;5058956;28;1201;-75
2021/03/09 05:16:41;;;;;;;;;;;;;;;;;;5059100;28;1381;-75
2021/03/09 05:19:06;;;;;;;;;;;;;;;;;;5059282;28;1304;-75
2021/03/09 05:21:32;;;;;;;;;;;;;;;;;;5059065;28;862;-75
2021/03/09 05:23:57;;;;;;;;;;;;;;;;;;5077005;28;908;-75
2021/03/09 05:26:22;;;;;;;;;;;;;;;;;;5058910;28;1381;-75
2021/03/09 05:28:48;;;;;;;;;;;;;;;;;;5077073;28;1218;-75
2021/03/09 05:31:14;;;;;;;;;;;;;;;;;;5058932;28;2508;-75
2021/03/09 05:33:39;;;;;;;;;;;;;;;;;;5076455;28;1898;-75
2021/03/09 05:36:04;;;;;;;;;;;;;;;;;;5058760;28;1349;-75
2021/03/09 05:38:30;;;;;;;;;;;;;;;;;;5076769;28;893;-75
2021/03/09 05:40:55;;;;;;;;;;;;;;;;;;5058867;28;1634;-75
2021/03/09 05:43:20;;;;;;;;;;;;;;;;;;5076534;28;806;-75
2021/03/09 05:45:46;;;;;;;;;;;;;;;;;;5076630;28;1294;-75
2021/03/09 05:48:12;;;;;;;;;;;;;;;;;;5076754;28;890;-75
2021/03/09 05:50:37;;;;;;;;;;;;;;;;;;5058922;28;1421;-75
2021/03/09 05:53:02;;;;;;;;;;;;;;;;;;5058249;28;1886;-75
2021/03/09 05:55:27;;;;;;;;;;;;;;;;;;5076116;28;1286;-75
2021/03/09 05:57:53;;;;;;;;;;;;;;;;;;5041977;28;920;-75
2021/03/09 06:00:18;;;;;;;;;;;;;;;;;;5076287;28;914;-75
2021/03/09 06:02:44;;;;;;;;;;;;;;;;;;5058122;28;1231;-76
2021/03/09 06:05:10;;;;;;;;;;;;;;;;;;5058090;28;1337;-75
2021/03/09 06:07:35;;;;;;;;;;;;;;;;;;5058271;28;1319;-75
2021/03/09 06:10:00;;;;;;;;;;;;;;;;;;5076310;28;895;-75
2021/03/09 06:12:26;;;;;;;;;;;;;;;;;;5058017;28;1894;-75
2021/03/09 06:14:51;;;;;;;;;;;;;;;;;;5076079;28;821;-75
2021/03/09 06:17:24;;;;;;;;;;;;;;;;;;5075928;28;1309;-75
2021/03/09 06:19:49;;;;;;;;;;;;;;;;;;5074920;28;854;-76
2021/03/09 06:22:15;;;;;;;;;;;;;;;;;;5075823;28;817;-75
2021/03/09 06:24:41;;;;;;;;;;;;;;;;;;5058018;28;830;-75
2021/03/09 06:27:22;;;;;;;;;;;;;;;;;;5075601;28;1409;-75
2021/03/09 06:29:47;;;;;;;;;;;;;;;;;;5075830;28;817;-75
2021/03/09 06:32:12;;;;;;;;;;;;;;;;;;5057811;28;1901;-75
2021/03/09 06:34:38;;;;;;;;;;;;;;;;;;5057501;28;1443;-75
2021/03/09 06:37:03;;;;;;;;;;;;;;;;;;5075687;28;1388;-75
2021/03/09 06:39:42;;;;;;;;;;;;;;;;;;5057658;28;1783;-75
2021/03/09 06:42:08;;;;;;;;;;;;;;;;;;5057386;28;1634;-75
2021/03/09 06:44:34;;;;;;;;;;;;;;;;;;5075419;28;923;-75
2021/03/09 06:46:59;;;;;;;;;;;;;;;;;;5057261;28;1342;-75
2021/03/09 06:49:24;;;;;;;;;;;;;;;;;;5075467;28;898;-75
2021/03/09 06:51:50;;;;;;;;;;;;;;;;;;5057639;28;1889;-75
2021/03/09 06:54:15;;;;;;;;;;;;;;;;;;5057263;28;1207;-75
2021/03/09 06:56:42;;;;;;;;;;;;;;;;;;5074966;28;1273;-75
2021/03/09 06:59:16;;;;;;;;;;;;;;;;;;5075638;28;876;-75
2021/03/09 07:01:41;;;;;;;;;;;;;;;;;;5075310;28;874;-75
2021/03/09 07:04:19;;;;;;;;;;;;;;;;;;5075228;28;876;-75
2021/03/09 07:06:45;;;;;;;;;;;;;;;;;;5074812;28;1412;-75
2021/03/09 07:09:10;;;;;;;;;;;;;;;;;;5075001;28;854;-75
2021/03/09 07:11:36;;;;;;;;;;;;;;;;;;5057095;28;1396;-75
2021/03/09 07:14:01;;;;;;;;;;;;;;;;;;5056802;28;1955;-75
2021/03/09 07:16:26;;;;;;;;;;;;;;;;;;5056913;28;1385;-75
2021/03/09 07:18:52;;;;;;;;;;;;;;;;;;5057060;28;869;-75
2021/03/09 07:21:17;;;;;;;;;;;;;;;;;;5057017;28;1646;-75
2021/03/09 07:23:43;;;;;;;;;;;;;;;;;;5074906;28;935;-75
2021/03/09 07:26:10;;;;;;;;;;;;;;;;;;5075030;28;1361;-75
2021/03/09 07:28:40;;;;;;;;;;;;;;;;;;5074764;28;856;-75
2021/03/09 07:31:06;;;;;;;;;;;;;;;;;;5074797;28;867;-75
2021/03/09 07:33:33;;;;;;;;;;;;;;;;;;5056639;28;1906;-75
2021/03/09 07:35:58;;;;;;;;;;;;;;;;;;5074400;28;1321;-75
2021/03/09 07:38:24;;;;;;;;;;;;;;;;;;5056689;28;1223;-75
2021/03/09 07:40:50;;;;;;;;;;;;;;;;;;5074625;28;849;-75
2021/03/09 07:43:15;;;;;;;;;;;;;;;;;;5074604;28;991;-75
2021/03/09 07:45:41;;;;;;;;;;;;;;;;;;5056642;28;1346;-75
2021/03/09 07:48:08;;;;;;;;;;;;;;;;;;5074417;28;817;-75
2021/03/09 07:50:37;;;;;;;;;;;;;;;;;;5074573;28;903;-75
2021/03/09 07:53:06;;;;;;;;;;;;;;;;;;5074198;28;1893;-75
2021/03/09 07:55:32;;;;;;;;;;;;;;;;;;5056508;28;1386;-75
2021/03/09 07:58:17;;;;;;;;;;;;;;;;;;5056580;28;893;-74
2021/03/09 08:00:59;;;;;;;;;;;;;;;;;;5074388;28;853;-75
2021/03/09 08:03:25;;;;;;;;;;;;;;;;;;5056221;28;842;-73
2021/03/09 08:05:51;;;;;;;;;;;;;;;;;;5074285;28;1424;-73
2021/03/09 08:08:34;;;;;;;;;;;;;;;;;;5074375;28;883;-73
2021/03/09 08:11:00;;;;;;;;;;;;;;;;;;5056432;28;1095;-73
2021/03/09 08:13:26;;;;;;;;;;;;;;;;;;5055945;28;1898;-73
2021/03/09 08:16:11;;;;;;;;;;;;;;;;;;5074301;28;1278;-73
2021/03/09 08:18:40;;;;;;;;;;;;;;;;;;5073983;28;1186;-73
2021/03/09 08:21:05;;;;;;;;;;;;;;;;;;5074272;28;884;-73
2021/03/09 08:23:33;;;;;;;;;;;;;;;;;;5074088;28;829;-72
2021/03/09 08:25:59;;;;;;;;;;;;;;;;;;5073897;28;1294;-73
2021/03/09 08:28:37;;;;;;;;;;;;;;;;;;5074150;28;861;-72
2021/03/09 08:31:08;;;;;;;;;;;;;;;;;;5074299;28;948;-73
2021/03/09 08:33:34;;;;;;;;;;;;;;;;;;5055924;28;1922;-73
2021/03/09 08:36:00;;;;;;;;;;;;;;;;;;5056036;28;1345;-73
2021/03/09 08:38:25;;;;;;;;;;;;;;;;;;5074004;28;805;-72
2021/03/09 08:40:58;;;;;;;;;;;;;;;;;;5056449;28;889;-72
2021/03/09 08:43:23;;;;;;;;;;;;;;;;;;5074850;28;844;-72
2021/03/09 08:45:52;;;;;;;;;;;;;;;;;;5059818;28;2198;-72
2021/03/09 08:48:17;;;;;;;;;;;;;;;;;;5059807;28;1191;-72
2021/03/09 08:50:44;;;;;;;;;;;;;;;;;;5060075;28;846;-73
2021/03/09 08:53:27;;;;;;;;;;;;;;;;;;5077475;28;1960;-73
2021/03/09 08:55:53;;;;;;;;;;;;;;;;;;5077599;28;1294;-73
2021/03/09 08:58:19;;;;;;;;;;;;;;;;;;5077607;28;883;-73
2021/03/09 09:00:44;;;;;;;;;;;;;;;;;;5077434;28;924;-73
2021/03/09 09:03:09;;;;;;;;;;;;;;;;;;5077422;28;1035;-73
2021/03/09 09:05:35;;;;;;;;;;;;;;;;;;5077517;28;1317;-73
2021/03/09 09:08:00;;;;;;;;;;;;;;;;;;5077402;28;915;-73
2021/03/09 09:10:28;;;;;;;;;;;;;;;;;;5077374;28;821;-73
2021/03/09 09:12:57;;;;;;;;;;;;;;;;;;5059221;28;1909;-73
2021/03/09 09:15:26;;;;;;;;;;;;;;;;;;5077014;28;1310;-73
2021/03/09 09:17:51;;;;;;;;;;;;;;;;;;5077188;28;829;-73
2021/03/09 09:20:24;;;;;;;;;;;;;;;;;;5077119;28;1025;-73
2021/03/09 09:22:52;;;;;;;;;;;;;;;;;;5058913;28;1279;-73
2021/03/09 09:25:17;;;;;;;;;;;;;;;;;;5077029;28;1349;-73
2021/03/09 09:27:47;;;;;;;;;;;;;;;;;;5077312;28;807;-73
2021/03/09 09:30:14;;;;;;;;;;;;;;;;;;5077128;28;846;-73
2021/03/09 09:32:45;;;;;;;;;;;;;;;;;;5076757;28;1973;-73
2021/03/09 09:35:10;;;;;;;;;;;;;;;;;;5058759;28;1370;-73
2021/03/09 09:37:43;;;;;;;;;;;;;;;;;;5058862;28;1393;-73
2021/03/09 09:40:09;;;;;;;;;;;;;;;;;;5076834;28;916;-73
2021/03/09 09:42:34;;;;;;;;;;;;;;;;;;5076494;28;935;-73
2021/03/09 09:44:59;;;;;;;;;;;;;;;;;;5076716;28;901;-72
2021/03/09 09:47:24;;;;;;;;;;;;;;;;;;5076734;28;1404;-73
2021/03/09 09:49:50;;;;;;;;;;;;;;;;;;5076770;28;896;-73
2021/03/09 09:52:18;;;;;;;;;;;;;;;;;;5076217;28;1897;-72
2021/03/09 09:54:51;;;;;;;;;;;;;;;;;;5075438;28;829;-73
2021/03/09 09:57:16;;;;;;;;;;;;;;;;;;5076413;28;1297;-72
2021/03/09 09:59:41;;;;;;;;;;;;;;;;;;5058740;28;1260;-72
2021/03/09 10:02:16;;;;;;;;;;;;;;;;;;5076014;28;880;-73
2021/03/09 10:04:42;;;;;;;;;;;;;;;;;;5058486;28;1410;-73
2021/03/09 10:07:18;;;;;;;;;;;;;;;;;;5076212;28;1408;-73
2021/03/09 10:10:02;;;;;;;;;;;;;;;;;;5058391;28;1353;-73
2021/03/09 10:12:31;;;;;;;;;;;;;;;;;;5057848;28;1898;-72
2021/03/09 10:14:56;;;;;;;;;;;;;;;;;;5076217;28;948;-73
2021/03/09 10:17:22;;;;;;;;;;;;;;;;;;5076019;28;1325;-71
2021/03/09 10:19:47;;;;;;;;;;;;;;;;;;5058374;28;993;-72
2021/03/09 10:22:16;;;;;;;;;;;;;;;;;;5076036;28;873;-73
2021/03/09 10:24:41;;;;;;;;;;;;;;;;;;5058043;28;1540;-72
2021/03/09 10:27:15;;;;;;;;;;;;;;;;;;5058035;28;1436;-73
2021/03/09 10:29:40;;;;;;;;;;;;;;;;;;5076139;28;900;-72
2021/03/09 10:32:12;;;;;;;;;;;;;;;;;;5075623;28;1902;-73
2021/03/09 10:34:52;;;;;;;;;;;;;;;;;;5075930;28;864;-73
2021/03/09 10:37:18;;;;;;;;;;;;;;;;;;5075507;28;1326;-73
2021/03/09 10:39:54;;;;;;;;;;;;;;;;;;5075682;28;911;-73
2021/03/09 10:42:38;;;;;;;;;;;;;;;;;;5072489;28;1122;-72
2021/03/09 10:45:15;;;;;;;;;;;;;;;;;;5057450;28;1357;-72
2021/03/09 10:47:47;;;;;;;;;;;;;;;;;;5075670;28;1026;-73
2021/03/09 10:50:13;;;;;;;;;;;;;;;;;;5074083;28;1342;-71
2021/03/09 10:52:38;;;;;;;;;;;;;;;;;;5072166;28;1985;-71
2021/03/09 10:55:04;;;;;;;;;;;;;;;;;;5045886;28;1623;-72
2021/03/09 10:57:29;;;;;;;;;;;;;;;;;;5048757;28;1678;-72
2021/03/09 10:59:54;;;;;;;;;;;;;;;;;;5074565;28;1284;-72
2021/03/09 11:02:20;;;;;;;;;;;;;;;;;;5063639;28;1378;-73
2021/03/09 11:04:45;;;;;;;;;;;;;;;;;;5047164;28;1650;-72
2021/03/09 11:07:10;;;;;;;;;;;;;;;;;;5065286;28;1671;-71
2021/03/09 11:09:35;;;;;;;;;;;;;;;;;;5060633;28;1666;-73
2021/03/09 11:12:01;;;;;;;;;;;;;;;;;;5037057;28;1973;-71
2021/03/09 11:14:26;;;;;;;;;;;;;;;;;;5055162;28;842;-73
2021/03/09 11:16:51;;;;;;;;;;;;;;;;;;5063198;28;2087;-71
2021/03/09 11:19:16;;;;;;;;;;;;;;;;;;5063757;28;1523;-71
2021/03/09 11:21:42;;;;;;;;;;;;;;;;;;5066319;28;1628;-70
2021/03/09 11:24:07;;;;;;;;;;;;;;;;;;5074703;28;984;-72
2021/03/09 11:26:33;;;;;;;;;;;;;;;;;;5074931;28;1338;-72
2021/03/09 11:28:58;;;;;;;;;;;;;;;;;;5074688;28;912;-71
2021/03/09 11:31:25;;;;;;;;;;;;;;;;;;5057010;28;1378;-71
2021/03/09 11:33:50;;;;;;;;;;;;;;;;;;5074224;28;1971;-70
2021/03/09 11:36:16;;;;;;;;;;;;;;;;;;5074738;28;1338;-72
2021/03/09 11:38:42;;;;;;;;;;;;;;;;;;5074960;28;893;-71
2021/03/09 11:41:07;;;;;;;;;;;;;;;;;;5074679;28;998;-70
2021/03/09 11:43:32;;;;;;;;;;;;;;;;;;5074501;28;845;-72
2021/03/09 11:45:58;;;;;;;;;;;;;;;;;;5074382;28;1313;-70
2021/03/09 11:48:23;;;;;;;;;;;;;;;;;;5056779;28;900;-70
2021/03/09 11:50:48;;;;;;;;;;;;;;;;;;5074669;28;947;-70
2021/03/09 11:53:14;;;;;;;;;;;;;;;;;;5074409;28;1893;-72
2021/03/09 11:55:39;;;;;;;;;;;;;;;;;;5056505;28;1377;-72
2021/03/09 11:58:04;;;;;;;;;;;;;;;;;;5074358;28;861;-72
2021/03/09 12:00:30;;;;;;;;;;;;;;;;;;5074549;28;885;-72
2021/03/09 12:02:55;;;;;;;;;;;;;;;;;;5056222;28;1337;-71
2021/03/09 12:05:20;;;;;;;;;;;;;;;;;;5056226;28;1519;-70
2021/03/09 12:07:45;;;;;;;;;;;;;;;;;;5074420;28;824;-69
2021/03/09 12:10:11;;;;;;;;;;;;;;;;;;5056346;28;1320;-72
2021/03/09 12:12:36;;;;;;;;;;;;;;;;;;5074281;28;1890;-71
2021/03/09 12:15:01;;;;;;;;;;;;;;;;;;5056251;28;1462;-72
2021/03/09 12:17:27;;;;;;;;;;;;;;;;;;5074239;28;1487;-72
2021/03/09 12:19:52;;;;;;;;;;;;;;;;;;5077795;28;913;-70
2021/03/09 12:22:17;;;;;;;;;;;;;;;;;;5060201;28;1220;-71
2021/03/09 12:24:42;;;;;;;;;;;;;;;;;;5078216;28;944;-70
2021/03/09 12:27:08;;;;;;;;;;;;;;;;;;5060403;28;1353;-70
2021/03/09 12:29:33;;;;;;;;;;;;;;;;;;5078354;28;872;-70
2021/03/09 12:31:58;;;;;;;;;;;;;;;;;;5077917;28;1965;-72
2021/03/09 12:34:23;;;;;;;;;;;;;;;;;;5060145;28;1167;-71
2021/03/09 12:36:49;;;;;;;;;;;;;;;;;;5078162;28;1527;-71
2021/03/09 12:39:14;;;;;;;;;;;;;;;;;;5059880;28;1296;-71
2021/03/09 12:41:39;;;;;;;;;;;;;;;;;;5060084;28;1334;-71
2021/03/09 12:44:05;;;;;;;;;;;;;;;;;;5059884;28;1456;-71
2021/03/09 12:46:30;;;;;;;;;;;;;;;;;;5059876;28;1390;-72
2021/03/09 12:48:55;;;;;;;;;;;;;;;;;;5059622;28;1206;-72
2021/03/09 12:51:20;;;;;;;;;;;;;;;;;;5060125;28;1130;-71
2021/03/09 12:53:46;;;;;;;;;;;;;;;;;;5077555;28;1959;-72
2021/03/09 12:56:12;;;;;;;;;;;;;;;;;;5059902;28;1294;-70
2021/03/09 12:58:37;;;;;;;;;;;;;;;;;;5077419;28;871;-72
2021/03/09 13:01:02;;;;;;;;;;;;;;;;;;5077634;28;908;-70
2021/03/09 13:03:28;;;;;;;;;;;;;;;;;;5077268;28;925;-72
2021/03/09 13:05:53;;;;;;;;;;;;;;;;;;5077591;28;1325;-71
2021/03/09 13:08:18;;;;;;;;;;;;;;;;;;5077555;28;852;-71
2021/03/09 13:10:44;;;;;;;;;;;;;;;;;;5077359;28;841;-72
2021/03/09 13:13:09;;;;;;;;;;;;;;;;;;5059238;28;1903;-71
2021/03/09 13:15:34;;;;;;;;;;;;;;;;;;5059374;28;1282;-73
2021/03/09 13:17:59;;;;;;;;;;;;;;;;;;5059221;28;1278;-70
2021/03/09 13:20:25;;;;;;;;;;;;;;;;;;5077236;28;863;-70
2021/03/09 13:22:50;;;;;;;;;;;;;;;;;;5059011;28;814;-71
2021/03/09 13:25:15;;;;;;;;;;;;;;;;;;5059153;28;1938;-71
2021/03/09 13:27:41;;;;;;;;;;;;;;;;;;5059353;28;886;-71
2021/03/09 13:30:08;;;;;;;;;;;;;;;;;;5077080;28;887;-72
2021/03/09 13:32:33;;;;;;;;;;;;;;;;;;5076519;28;1894;-71
2021/03/09 13:34:58;;;;;;;;;;;;;;;;;;5059340;28;1205;-70
2021/03/09 13:37:24;;;;;;;;;;;;;;;;;;5058916;28;1441;-72
2021/03/09 13:39:49;;;;;;;;;;;;;;;;;;5076902;28;1298;-71
2021/03/09 13:42:14;;;;;;;;;;;;;;;;;;5059115;28;1497;-72
2021/03/09 13:44:39;;;;;;;;;;;;;;;;;;5058846;28;818;-71
2021/03/09 13:47:05;;;;;;;;;;;;;;;;;;5076864;28;1392;-72
2021/03/09 13:49:30;;;;;;;;;;;;;;;;;;5076684;28;834;-72
2021/03/09 13:51:55;;;;;;;;;;;;;;;;;;5076595;28;1906;-70
2021/03/09 13:54:21;;;;;;;;;;;;;;;;;;5076387;28;981;-72
2021/03/09 13:56:46;;;;;;;;;;;;;;;;;;5058644;28;1639;-72
2021/03/09 13:59:11;;;;;;;;;;;;;;;;;;5076605;28;908;-71
2021/03/09 14:01:36;;;;;;;;;;;;;;;;;;5076433;28;889;-70
2021/03/09 14:04:03;;;;;;;;;;;;;;;;;;5076379;28;851;-70
2021/03/09 14:06:28;;;;;;;;;;;;;;;;;;5058410;28;1354;-71
2021/03/09 14:08:54;;;;;;;;;;;;;;;;;;5076216;28;861;-71
2021/03/09 14:11:19;;;;;;;;;;;;;;;;;;5058326;28;1295;-71
2021/03/09 14:13:44;;;;;;;;;;;;;;;;;;5076160;28;1898;-71
2021/03/09 14:16:09;;;;;;;;;;;;;;;;;;5076135;28;1404;-72
2021/03/09 14:18:35;;;;;;;;;;;;;;;;;;5076500;28;856;-72
2021/03/09 14:21:00;;;;;;;;;;;;;;;;;;5058424;28;1223;-71
2021/03/09 14:23:25;;;;;;;;;;;;;;;;;;5057880;28;806;-71
2021/03/09 14:25:51;;;;;;;;;;;;;;;;;;5075889;28;1420;-73
2021/03/09 14:28:16;;;;;;;;;;;;;;;;;;5076063;28;947;-71
2021/03/09 14:30:42;;;;;;;;;;;;;;;;;;5075977;28;974;-72
2021/03/09 14:33:07;;;;;;;;;;;;;;;;;;5075415;28;1905;-73
2021/03/09 14:35:33;;;;;;;;;;;;;;;;;;5057805;28;1508;-72
2021/03/09 14:37:58;;;;;;;;;;;;;;;;;;5075866;28;860;-70
2021/03/09 14:40:24;;;;;;;;;;;;;;;;;;5075524;28;884;-72
2021/03/09 14:42:51;;;;;;;;;;;;;;;;;;5075152;28;818;-71
2021/03/09 14:45:16;;;;;;;;;;;;;;;;;;5057465;28;1337;-73
2021/03/09 14:47:41;;;;;;;;;;;;;;;;;;5075452;28;1344;-72
2021/03/09 14:50:11;;;;;;;;;;;;;;;;;;5075481;28;1097;-70
2021/03/09 14:52:37;;;;;;;;;;;;;;;;;;5057524;28;1898;-71
2021/03/09 14:55:03;;;;;;;;;;;;;;;;;;5057420;28;826;-71
2021/03/09 14:57:29;;;;;;;;;;;;;;;;;;5075082;28;1416;-70
2021/03/09 14:59:54;;;;;;;;;;;;;;;;;;5057397;28;1326;-72
2021/03/09 15:02:19;;;;;;;;;;;;;;;;;;5075053;28;959;-71
2021/03/09 15:04:44;;;;;;;;;;;;;;;;;;5057420;28;900;-71
2021/03/09 15:07:11;;;;;;;;;;;;;;;;;;5056983;28;1354;-72
2021/03/09 15:09:36;;;;;;;;;;;;;;;;;;5057340;28;838;-71
2021/03/09 15:12:01;;;;;;;;;;;;;;;;;;5056948;28;1894;-71
2021/03/09 15:14:26;;;;;;;;;;;;;;;;;;5057234;28;1357;-70
2021/03/09 15:16:52;;;;;;;;;;;;;;;;;;5075015;28;1294;-72
2021/03/09 15:19:17;;;;;;;;;;;;;;;;;;5057234;28;1362;-71
2021/03/09 15:21:42;;;;;;;;;;;;;;;;;;5074950;28;810;-72
2021/03/09 15:24:08;;;;;;;;;;;;;;;;;;5074689;28;867;-71
2021/03/09 15:26:33;;;;;;;;;;;;;;;;;;5074826;28;1384;-71
2021/03/09 15:28:58;;;;;;;;;;;;;;;;;;5056941;28;1296;-70
2021/03/09 15:31:24;;;;;;;;;;;;;;;;;;5074730;28;901;-71
2021/03/09 15:33:50;;;;;;;;;;;;;;;;;;5074394;28;1902;-70
2021/03/09 15:36:15;;;;;;;;;;;;;;;;;;5056786;28;2209;-70
2021/03/09 15:38:40;;;;;;;;;;;;;;;;;;5057030;28;960;-72
2021/03/09 15:41:06;;;;;;;;;;;;;;;;;;5056647;28;1193;-73
2021/03/09 15:43:31;;;;;;;;;;;;;;;;;;5074416;28;868;-73
2021/03/09 15:45:56;;;;;;;;;;;;;;;;;;5074505;28;1392;-72
2021/03/09 15:48:22;;;;;;;;;;;;;;;;;;5074784;28;790;-72
2021/03/09 15:50:47;;;;;;;;;;;;;;;;;;5056587;28;1521;-73
2021/03/09 15:53:12;;;;;;;;;;;;;;;;;;5055252;28;1897;-73
2021/03/09 15:55:38;;;;;;;;;;;;;;;;;;5074393;28;1428;-73
2021/03/09 15:58:03;;;;;;;;;;;;;;;;;;5056544;28;893;-74
2021/03/09 16:00:28;;;;;;;;;;;;;;;;;;5056496;28;925;-73
2021/03/09 16:02:54;;;;;;;;;;;;;;;;;;5074159;28;949;-72
2021/03/09 16:05:19;;;;;;;;;;;;;;;;;;5074612;28;1321;-72
2021/03/09 16:07:45;;;;;;;;;;;;;;;;;;5074459;28;874;-73
2021/03/09 16:10:10;;;;;;;;;;;;;;;;;;5056597;28;2537;-72
2021/03/09 16:12:40;;;;;;;;;;;;;;;;;;5056305;28;1898;-72
2021/03/09 16:15:06;;;;;;;;;;;;;;;;;;5074108;28;904;-72
2021/03/09 16:17:32;;;;;;;;;;;;;;;;;;5074280;28;1404;-72
2021/03/09 16:19:57;;;;;;;;;;;;;;;;;;5074223;28;970;-73
2021/03/09 16:22:22;;;;;;;;;;;;;;;;;;5074280;28;881;-74
2021/03/09 16:24:48;;;;;;;;;;;;;;;;;;5074116;28;957;-71
2021/03/09 16:27:13;;;;;;;;;;;;;;;;;;5074316;28;1381;-73
2021/03/09 16:29:38;;;;;;;;;;;;;;;;;;5074178;28;908;-72
2021/03/09 16:32:04;;;;;;;;;;;;;;;;;;5073982;28;1897;-74
2021/03/09 16:34:29;;;;;;;;;;;;;;;;;;5074104;28;832;-74
2021/03/09 16:36:54;;;;;;;;;;;;;;;;;;5056214;28;1515;-72
2021/03/09 16:39:19;;;;;;;;;;;;;;;;;;5073921;28;901;-72
2021/03/09 16:41:45;;;;;;;;;;;;;;;;;;5056182;28;1203;-73
2021/03/09 16:44:10;;;;;;;;;;;;;;;;;;5055936;28;1220;-73
2021/03/09 16:46:35;;;;;;;;;;;;;;;;;;5074080;28;1376;-72
2021/03/09 16:49:01;;;;;;;;;;;;;;;;;;5055914;28;1247;-73
2021/03/09 16:51:27;;;;;;;;;;;;;;;;;;5039499;28;1220;-73
2021/03/09 16:53:52;;;;;;;;;;;;;;;;;;5073488;28;1979;-71
2021/03/09 16:56:18;;;;;;;;;;;;;;;;;;5073849;28;1281;-75
2021/03/09 16:58:43;;;;;;;;;;;;;;;;;;5055915;28;1330;-72
2021/03/09 17:01:08;;;;;;;;;;;;;;;;;;5074016;28;865;-72
2021/03/09 17:03:33;;;;;;;;;;;;;;;;;;5073548;28;972;-73
2021/03/09 17:05:58;;;;;;;;;;;;;;;;;;5077090;28;1286;-72